sensor_id;sensor_type;location;lat;lon;timestamp;P1;durP1;ratioP1;P2;durP2;ratioP2
72319;SDS011;60269;52.502;16.732;2022-07-22T00:01:21;8.27;;;3.90;;
72319;SDS011;60269;52.502;16.732;2022-07-22T00:05:06;11.80;;;4.13;;
72319;SDS011;60269;52.502;16.732;2022-07-22T00:08:52;9.52;;;4.60;;
72319;SDS011;60269;52.502;16.732;2022-07-22T00:12:43;8.50;;;4.55;;
72319;SDS011;60269;52.502;16.732;2022-07-22T00:16:22;10.27;;;4.65;;
72319;SDS011;60269;52.502;16.732;2022-07-22T00:20:13;9.17;;;4.43;;
72319;SDS011;60269;52.502;16.732;2022-07-22T00:23:59;11.70;;;4.63;;
72319;SDS011;60269;52.502;16.732;2022-07-22T00:27:57;8.98;;;5.10;;
72319;SDS011;60269;52.502;16.732;2022-07-22T00:31:36;9.85;;;5.00;;
72319;SDS011;60269;52.502;16.732;2022-07-22T00:35:35;10.88;;;4.55;;
72319;SDS011;60269;52.502;16.732;2022-07-22T00:39:35;10.00;;;4.87;;
72319;SDS011;60269;52.502;16.732;2022-07-22T00:43:14;9.37;;;4.93;;
72319;SDS011;60269;52.502;16.732;2022-07-22T00:47:12;9.00;;;4.65;;
72319;SDS011;60269;52.502;16.732;2022-07-22T00:50:51;11.55;;;4.70;;
72319;SDS011;60269;52.502;16.732;2022-07-22T00:54:43;8.43;;;4.70;;
72319;SDS011;60269;52.502;16.732;2022-07-22T00:58:22;10.57;;;5.20;;
72319;SDS011;60269;52.502;16.732;2022-07-22T01:02:14;11.13;;;5.10;;
72319;SDS011;60269;52.502;16.732;2022-07-22T01:05:53;9.32;;;4.28;;
72319;SDS011;60269;52.502;16.732;2022-07-22T01:09:51;9.68;;;5.25;;
72319;SDS011;60269;52.502;16.732;2022-07-22T01:13:37;8.48;;;4.80;;
72319;SDS011;60269;52.502;16.732;2022-07-22T01:17:28;9.53;;;4.83;;
72319;SDS011;60269;52.502;16.732;2022-07-22T01:21:14;9.77;;;5.43;;
72319;SDS011;60269;52.502;16.732;2022-07-22T01:25:07;14.45;;;5.97;;
72319;SDS011;60269;52.502;16.732;2022-07-22T01:28:45;10.93;;;5.57;;
72319;SDS011;60269;52.502;16.732;2022-07-22T01:32:38;9.40;;;5.55;;
72319;SDS011;60269;52.502;16.732;2022-07-22T01:36:24;13.20;;;6.27;;
72319;SDS011;60269;52.502;16.732;2022-07-22T01:40:15;11.17;;;6.13;;
72319;SDS011;60269;52.502;16.732;2022-07-22T01:43:53;10.63;;;5.72;;
72319;SDS011;60269;52.502;16.732;2022-07-22T01:47:45;12.88;;;5.80;;
72319;SDS011;60269;52.502;16.732;2022-07-22T01:51:30;11.73;;;5.75;;
72319;SDS011;60269;52.502;16.732;2022-07-22T01:55:16;12.70;;;6.60;;
72319;SDS011;60269;52.502;16.732;2022-07-22T01:59:02;12.40;;;6.30;;
72319;SDS011;60269;52.502;16.732;2022-07-22T02:02:47;10.00;;;5.72;;
72319;SDS011;60269;52.502;16.732;2022-07-22T02:06:33;13.00;;;5.68;;
72319;SDS011;60269;52.502;16.732;2022-07-22T02:10:24;15.18;;;5.85;;
72319;SDS011;60269;52.502;16.732;2022-07-22T02:14:09;10.93;;;6.00;;
72319;SDS011;60269;52.502;16.732;2022-07-22T02:18:15;10.47;;;6.80;;
72319;SDS011;60269;52.502;16.732;2022-07-22T02:21:55;13.48;;;6.50;;
72319;SDS011;60269;52.502;16.732;2022-07-22T02:25:47;12.75;;;6.57;;
72319;SDS011;60269;52.502;16.732;2022-07-22T02:29:33;12.40;;;6.32;;
72319;SDS011;60269;52.502;16.732;2022-07-22T02:33:24;15.23;;;7.33;;
72319;SDS011;60269;52.502;16.732;2022-07-22T02:37:03;14.03;;;7.63;;
72319;SDS011;60269;52.502;16.732;2022-07-22T02:40:54;18.35;;;7.95;;
72319;SDS011;60269;52.502;16.732;2022-07-22T02:44:33;16.92;;;9.13;;
72319;SDS011;60269;52.502;16.732;2022-07-22T02:48:24;21.30;;;10.15;;
72319;SDS011;60269;52.502;16.732;2022-07-22T02:52:03;22.47;;;10.20;;
72319;SDS011;60269;52.502;16.732;2022-07-22T02:55:54;21.20;;;9.90;;
72319;SDS011;60269;52.502;16.732;2022-07-22T02:59:39;19.45;;;10.48;;
72319;SDS011;60269;52.502;16.732;2022-07-22T03:03:38;19.88;;;10.40;;
72319;SDS011;60269;52.502;16.732;2022-07-22T03:07:37;19.63;;;11.07;;
72319;SDS011;60269;52.502;16.732;2022-07-22T03:11:16;22.87;;;11.33;;
72319;SDS011;60269;52.502;16.732;2022-07-22T03:15:14;20.10;;;10.38;;
72319;SDS011;60269;52.502;16.732;2022-07-22T03:19:13;21.45;;;11.15;;
72319;SDS011;60269;52.502;16.732;2022-07-22T03:22:52;18.90;;;10.25;;
72319;SDS011;60269;52.502;16.732;2022-07-22T03:26:43;22.90;;;10.25;;
72319;SDS011;60269;52.502;16.732;2022-07-22T03:30:22;21.53;;;10.37;;
72319;SDS011;60269;52.502;16.732;2022-07-22T03:34:20;23.48;;;10.85;;
72319;SDS011;60269;52.502;16.732;2022-07-22T03:37:59;24.35;;;11.30;;
72319;SDS011;60269;52.502;16.732;2022-07-22T03:41:57;22.95;;;12.50;;
72319;SDS011;60269;52.502;16.732;2022-07-22T03:45:36;21.83;;;12.27;;
72319;SDS011;60269;52.502;16.732;2022-07-22T03:49:29;23.33;;;11.93;;
72319;SDS011;60269;52.502;16.732;2022-07-22T03:53:08;23.25;;;12.13;;
72319;SDS011;60269;52.502;16.732;2022-07-22T03:57:06;21.05;;;12.25;;
72319;SDS011;60269;52.502;16.732;2022-07-22T04:01:13;19.65;;;11.50;;
72319;SDS011;60269;52.502;16.732;2022-07-22T04:05:12;23.85;;;10.57;;
72319;SDS011;60269;52.502;16.732;2022-07-22T04:08:51;21.57;;;11.83;;
72319;SDS011;60269;52.502;16.732;2022-07-22T04:12:49;24.63;;;13.13;;
72319;SDS011;60269;52.502;16.732;2022-07-22T04:16:48;23.95;;;11.70;;
72319;SDS011;60269;52.502;16.732;2022-07-22T04:20:27;24.67;;;12.20;;
72319;SDS011;60269;52.502;16.732;2022-07-22T04:24:25;21.35;;;11.88;;
72319;SDS011;60269;52.502;16.732;2022-07-22T04:28:04;26.50;;;12.00;;
72319;SDS011;60269;52.502;16.732;2022-07-22T04:32:02;25.70;;;13.25;;
72319;SDS011;60269;52.502;16.732;2022-07-22T04:35:41;24.02;;;14.13;;
72319;SDS011;60269;52.502;16.732;2022-07-22T04:39:32;25.23;;;13.45;;
72319;SDS011;60269;52.502;16.732;2022-07-22T04:43:11;25.35;;;13.55;;
72319;SDS011;60269;52.502;16.732;2022-07-22T04:47:02;28.07;;;14.90;;
72319;SDS011;60269;52.502;16.732;2022-07-22T04:50:41;27.63;;;15.02;;
72319;SDS011;60269;52.502;16.732;2022-07-22T04:54:32;24.55;;;14.20;;
72319;SDS011;60269;52.502;16.732;2022-07-22T04:58:12;26.92;;;14.85;;
72319;SDS011;60269;52.502;16.732;2022-07-22T05:02:03;29.85;;;15.35;;
72319;SDS011;60269;52.502;16.732;2022-07-22T05:05:42;22.10;;;13.13;;
72319;SDS011;60269;52.502;16.732;2022-07-22T05:09:41;22.40;;;12.70;;
72319;SDS011;60269;52.502;16.732;2022-07-22T05:13:27;23.48;;;13.63;;
72319;SDS011;60269;52.502;16.732;2022-07-22T05:17:11;20.05;;;12.10;;
72319;SDS011;60269;52.502;16.732;2022-07-22T05:20:57;18.85;;;11.75;;
72319;SDS011;60269;52.502;16.732;2022-07-22T05:24:48;19.77;;;11.53;;
72319;SDS011;60269;52.502;16.732;2022-07-22T05:28:27;18.83;;;12.05;;
72319;SDS011;60269;52.502;16.732;2022-07-22T05:32:19;20.48;;;12.30;;
72319;SDS011;60269;52.502;16.732;2022-07-22T05:36:04;18.50;;;11.23;;
72319;SDS011;60269;52.502;16.732;2022-07-22T05:39:48;16.60;;;11.45;;
72319;SDS011;60269;52.502;16.732;2022-07-22T05:43:34;17.77;;;11.67;;
72319;SDS011;60269;52.502;16.732;2022-07-22T05:47:18;20.77;;;12.63;;
72319;SDS011;60269;52.502;16.732;2022-07-22T05:51:04;23.95;;;13.10;;
72319;SDS011;60269;52.502;16.732;2022-07-22T05:55:02;21.95;;;12.27;;
72319;SDS011;60269;52.502;16.732;2022-07-22T05:58:48;19.98;;;11.95;;
72319;SDS011;60269;52.502;16.732;2022-07-22T06:02:39;17.80;;;12.27;;
72319;SDS011;60269;52.502;16.732;2022-07-22T06:06:18;18.33;;;11.30;;
72319;SDS011;60269;52.502;16.732;2022-07-22T06:10:09;17.65;;;11.80;;
72319;SDS011;60269;52.502;16.732;2022-07-22T06:13:48;22.23;;;12.32;;
72319;SDS011;60269;52.502;16.732;2022-07-22T06:17:39;18.95;;;11.65;;
72319;SDS011;60269;52.502;16.732;2022-07-22T06:21:25;21.60;;;10.70;;
72319;SDS011;60269;52.502;16.732;2022-07-22T06:25:09;18.30;;;10.50;;
72319;SDS011;60269;52.502;16.732;2022-07-22T06:29:15;16.50;;;10.13;;
72319;SDS011;60269;52.502;16.732;2022-07-22T06:32:59;16.02;;;9.55;;
72319;SDS011;60269;52.502;16.732;2022-07-22T06:36:45;17.67;;;10.43;;
72319;SDS011;60269;52.502;16.732;2022-07-22T06:40:36;15.37;;;8.93;;
72319;SDS011;60269;52.502;16.732;2022-07-22T06:44:15;15.15;;;9.38;;
72319;SDS011;60269;52.502;16.732;2022-07-22T06:48:06;14.32;;;8.80;;
72319;SDS011;60269;52.502;16.732;2022-07-22T06:51:52;13.82;;;9.60;;
72319;SDS011;60269;52.502;16.732;2022-07-22T06:55:36;14.57;;;9.70;;
72319;SDS011;60269;52.502;16.732;2022-07-22T06:59:22;16.13;;;10.13;;
72319;SDS011;60269;52.502;16.732;2022-07-22T07:03:13;18.17;;;9.23;;
72319;SDS011;60269;52.502;16.732;2022-07-22T07:07:12;16.05;;;8.85;;
72319;SDS011;60269;52.502;16.732;2022-07-22T07:11:04;13.77;;;8.43;;
72319;SDS011;60269;52.502;16.732;2022-07-22T07:14:43;14.15;;;9.57;;
72319;SDS011;60269;52.502;16.732;2022-07-22T07:19:02;13.70;;;8.90;;
72319;SDS011;60269;52.502;16.732;2022-07-22T07:22:40;13.32;;;9.63;;
72319;SDS011;60269;52.502;16.732;2022-07-22T07:26:31;14.00;;;9.40;;
72319;SDS011;60269;52.502;16.732;2022-07-22T07:30:10;15.10;;;9.75;;
72319;SDS011;60269;52.502;16.732;2022-07-22T07:34:09;13.88;;;9.18;;
72319;SDS011;60269;52.502;16.732;2022-07-22T07:37:48;13.43;;;9.37;;
72319;SDS011;60269;52.502;16.732;2022-07-22T07:41:39;17.73;;;9.75;;
72319;SDS011;60269;52.502;16.732;2022-07-22T07:45:25;16.05;;;9.65;;
72319;SDS011;60269;52.502;16.732;2022-07-22T07:49:17;13.35;;;8.80;;
72319;SDS011;60269;52.502;16.732;2022-07-22T07:52:56;14.68;;;8.38;;
72319;SDS011;60269;52.502;16.732;2022-07-22T07:56:56;14.23;;;8.27;;
72319;SDS011;60269;52.502;16.732;2022-07-22T08:00:36;14.20;;;8.07;;
72319;SDS011;60269;52.502;16.732;2022-07-22T08:04:29;14.85;;;8.70;;
72319;SDS011;60269;52.502;16.732;2022-07-22T08:08:16;12.80;;;9.40;;
72319;SDS011;60269;52.502;16.732;2022-07-22T08:12:15;12.88;;;8.80;;
72319;SDS011;60269;52.502;16.732;2022-07-22T08:15:53;15.57;;;8.70;;
72319;SDS011;60269;52.502;16.732;2022-07-22T08:19:46;12.77;;;8.90;;
72319;SDS011;60269;52.502;16.732;2022-07-22T08:23:32;14.50;;;9.15;;
72319;SDS011;60269;52.502;16.732;2022-07-22T08:27:24;12.00;;;8.30;;
72319;SDS011;60269;52.502;16.732;2022-07-22T08:31:06;15.57;;;9.00;;
72319;SDS011;60269;52.502;16.732;2022-07-22T08:34:57;15.13;;;8.53;;
72319;SDS011;60269;52.502;16.732;2022-07-22T08:38:43;12.43;;;7.82;;
72319;SDS011;60269;52.502;16.732;2022-07-22T08:42:28;12.73;;;7.95;;
72319;SDS011;60269;52.502;16.732;2022-07-22T08:46:13;12.05;;;7.88;;
72319;SDS011;60269;52.502;16.732;2022-07-22T08:50:05;10.88;;;7.28;;
72319;SDS011;60269;52.502;16.732;2022-07-22T08:53:45;14.33;;;8.47;;
72319;SDS011;60269;52.502;16.732;2022-07-22T08:57:37;11.77;;;7.35;;
72319;SDS011;60269;52.502;16.732;2022-07-22T09:01:22;12.13;;;7.90;;
72319;SDS011;60269;52.502;16.732;2022-07-22T09:05:20;12.30;;;8.10;;
72319;SDS011;60269;52.502;16.732;2022-07-22T09:09:33;12.63;;;8.93;;
72319;SDS011;60269;52.502;16.732;2022-07-22T09:13:12;11.63;;;6.73;;
72319;SDS011;60269;52.502;16.732;2022-07-22T09:21:23;10.25;;;7.13;;
72319;SDS011;60269;52.502;16.732;2022-07-22T09:25:40;9.35;;;6.53;;
72319;SDS011;60269;52.502;16.732;2022-07-22T09:29:21;11.03;;;7.27;;
72319;SDS011;60269;52.502;16.732;2022-07-22T09:33:21;15.43;;;8.07;;
72319;SDS011;60269;52.502;16.732;2022-07-22T09:37:00;10.40;;;7.30;;
72319;SDS011;60269;52.502;16.732;2022-07-22T09:41:00;12.20;;;7.43;;
72319;SDS011;60269;52.502;16.732;2022-07-22T09:44:39;11.73;;;7.40;;
72319;SDS011;60269;52.502;16.732;2022-07-22T09:48:38;11.87;;;8.20;;
72319;SDS011;60269;52.502;16.732;2022-07-22T09:52:17;12.37;;;7.23;;
72319;SDS011;60269;52.502;16.732;2022-07-22T09:56:09;9.55;;;6.93;;
72319;SDS011;60269;52.502;16.732;2022-07-22T09:59:47;8.80;;;5.68;;
72319;SDS011;60269;52.502;16.732;2022-07-22T10:03:46;10.77;;;6.05;;
72319;SDS011;60269;52.502;16.732;2022-07-22T10:07:29;10.90;;;6.17;;
72319;SDS011;60269;52.502;16.732;2022-07-22T10:11:21;9.57;;;5.63;;
72319;SDS011;60269;52.502;16.732;2022-07-22T10:15:07;11.07;;;5.80;;
72319;SDS011;60269;52.502;16.732;2022-07-22T10:19:00;10.13;;;6.28;;
72319;SDS011;60269;52.502;16.732;2022-07-22T10:22:49;11.40;;;5.22;;
72319;SDS011;60269;52.502;16.732;2022-07-22T10:26:50;9.67;;;5.80;;
72319;SDS011;60269;52.502;16.732;2022-07-22T10:30:37;8.97;;;5.23;;
72319;SDS011;60269;52.502;16.732;2022-07-22T10:34:23;8.82;;;5.40;;
72319;SDS011;60269;52.502;16.732;2022-07-22T10:38:08;9.55;;;5.22;;
72319;SDS011;60269;52.502;16.732;2022-07-22T10:42:04;8.20;;;5.13;;
72319;SDS011;60269;52.502;16.732;2022-07-22T10:45:46;8.10;;;5.00;;
72319;SDS011;60269;52.502;16.732;2022-07-22T10:49:39;9.27;;;5.30;;
72319;SDS011;60269;52.502;16.732;2022-07-22T10:53:25;9.38;;;5.35;;
72319;SDS011;60269;52.502;16.732;2022-07-22T10:57:31;7.80;;;5.10;;
72319;SDS011;60269;52.502;16.732;2022-07-22T11:01:15;8.52;;;5.20;;
72319;SDS011;60269;52.502;16.732;2022-07-22T11:05:08;7.67;;;5.00;;
72319;SDS011;60269;52.502;16.732;2022-07-22T11:08:51;14.63;;;5.50;;
72319;SDS011;60269;52.502;16.732;2022-07-22T11:12:48;8.98;;;4.30;;
72319;SDS011;60269;52.502;16.732;2022-07-22T11:16:34;9.30;;;4.28;;
72319;SDS011;60269;52.502;16.732;2022-07-22T11:20:26;7.93;;;4.88;;
72319;SDS011;60269;52.502;16.732;2022-07-22T11:24:05;8.23;;;4.63;;
72319;SDS011;60269;52.502;16.732;2022-07-22T11:28:06;9.97;;;5.10;;
72319;SDS011;60269;52.502;16.732;2022-07-22T11:32:05;7.85;;;4.18;;
72319;SDS011;60269;52.502;16.732;2022-07-22T11:36:03;9.00;;;4.80;;
72319;SDS011;60269;52.502;16.732;2022-07-22T11:40:06;9.15;;;4.80;;
72319;SDS011;60269;52.502;16.732;2022-07-22T11:44:07;7.20;;;4.63;;
72319;SDS011;60269;52.502;16.732;2022-07-22T11:48:09;10.83;;;5.30;;
72319;SDS011;60269;52.502;16.732;2022-07-22T11:51:47;9.55;;;5.88;;
72319;SDS011;60269;52.502;16.732;2022-07-22T11:55:46;8.45;;;5.82;;
72319;SDS011;60269;52.502;16.732;2022-07-22T11:59:47;9.40;;;5.53;;
72319;SDS011;60269;52.502;16.732;2022-07-22T12:03:25;11.70;;;5.77;;
72319;SDS011;60269;52.502;16.732;2022-07-22T12:07:25;9.23;;;4.70;;
72319;SDS011;60269;52.502;16.732;2022-07-22T12:11:03;7.78;;;5.25;;
72319;SDS011;60269;52.502;16.732;2022-07-22T12:15:02;8.88;;;5.03;;
72319;SDS011;60269;52.502;16.732;2022-07-22T12:18:40;7.85;;;5.22;;
72319;SDS011;60269;52.502;16.732;2022-07-22T12:22:32;8.27;;;5.27;;
72319;SDS011;60269;52.502;16.732;2022-07-22T12:26:17;9.23;;;4.90;;
72319;SDS011;60269;52.502;16.732;2022-07-22T12:30:10;8.52;;;4.28;;
72319;SDS011;60269;52.502;16.732;2022-07-22T12:33:57;7.82;;;5.00;;
72319;SDS011;60269;52.502;16.732;2022-07-22T12:37:49;8.90;;;5.18;;
72319;SDS011;60269;52.502;16.732;2022-07-22T12:41:27;8.73;;;5.23;;
72319;SDS011;60269;52.502;16.732;2022-07-22T12:45:19;11.20;;;6.13;;
72319;SDS011;60269;52.502;16.732;2022-07-22T12:49:06;8.07;;;4.85;;
72319;SDS011;60269;52.502;16.732;2022-07-22T12:56:55;10.00;;;5.30;;
72319;SDS011;60269;52.502;16.732;2022-07-22T13:00:48;9.77;;;5.07;;
72319;SDS011;60269;52.502;16.732;2022-07-22T13:04:35;9.20;;;4.70;;
72319;SDS011;60269;52.502;16.732;2022-07-22T13:08:27;8.48;;;5.15;;
72319;SDS011;60269;52.502;16.732;2022-07-22T13:12:23;10.23;;;5.60;;
72319;SDS011;60269;52.502;16.732;2022-07-22T13:16:15;9.18;;;5.60;;
72319;SDS011;60269;52.502;16.732;2022-07-22T13:19:53;8.23;;;5.43;;
72319;SDS011;60269;52.502;16.732;2022-07-22T13:23:31;9.13;;;5.90;;
72319;SDS011;60269;52.502;16.732;2022-07-22T13:27:23;8.75;;;5.47;;
72319;SDS011;60269;52.502;16.732;2022-07-22T13:31:01;8.93;;;6.70;;
72319;SDS011;60269;52.502;16.732;2022-07-22T13:34:53;10.57;;;5.70;;
72319;SDS011;60269;52.502;16.732;2022-07-22T13:38:38;9.20;;;5.63;;
72319;SDS011;60269;52.502;16.732;2022-07-22T13:42:23;10.90;;;5.10;;
72319;SDS011;60269;52.502;16.732;2022-07-22T13:46:08;9.13;;;5.65;;
72319;SDS011;60269;52.502;16.732;2022-07-22T13:50:00;9.73;;;5.32;;
72319;SDS011;60269;52.502;16.732;2022-07-22T13:53:45;9.82;;;5.38;;
72319;SDS011;60269;52.502;16.732;2022-07-22T13:57:33;10.33;;;5.03;;
72319;SDS011;60269;52.502;16.732;2022-07-22T14:01:20;10.50;;;5.73;;
72319;SDS011;60269;52.502;16.732;2022-07-22T14:05:12;9.13;;;6.25;;
72319;SDS011;60269;52.502;16.732;2022-07-22T14:08:52;9.90;;;6.65;;
72319;SDS011;60269;52.502;16.732;2022-07-22T14:12:51;8.70;;;5.88;;
72319;SDS011;60269;52.502;16.732;2022-07-22T14:16:29;8.30;;;5.67;;
72319;SDS011;60269;52.502;16.732;2022-07-22T14:20:41;11.40;;;5.63;;
72319;SDS011;60269;52.502;16.732;2022-07-22T14:24:19;8.90;;;5.80;;
72319;SDS011;60269;52.502;16.732;2022-07-22T14:28:18;11.43;;;6.05;;
72319;SDS011;60269;52.502;16.732;2022-07-22T14:32:06;8.68;;;6.10;;
72319;SDS011;60269;52.502;16.732;2022-07-22T14:35:58;10.50;;;5.97;;
72319;SDS011;60269;52.502;16.732;2022-07-22T14:39:36;7.53;;;5.23;;
72319;SDS011;60269;52.502;16.732;2022-07-22T14:43:21;8.85;;;5.68;;
72319;SDS011;60269;52.502;16.732;2022-07-22T14:47:12;9.65;;;6.10;;
72319;SDS011;60269;52.502;16.732;2022-07-22T14:50:57;9.05;;;5.90;;
72319;SDS011;60269;52.502;16.732;2022-07-22T14:54:49;9.87;;;4.83;;
72319;SDS011;60269;52.502;16.732;2022-07-22T14:58:27;9.37;;;5.03;;
72319;SDS011;60269;52.502;16.732;2022-07-22T15:02:19;7.50;;;4.40;;
72319;SDS011;60269;52.502;16.732;2022-07-22T15:06:05;9.18;;;6.03;;
72319;SDS011;60269;52.502;16.732;2022-07-22T15:09:50;8.68;;;5.22;;
72319;SDS011;60269;52.502;16.732;2022-07-22T15:13:35;8.80;;;4.90;;
72319;SDS011;60269;52.502;16.732;2022-07-22T15:17:27;11.17;;;4.63;;
72319;SDS011;60269;52.502;16.732;2022-07-22T15:21:05;7.47;;;5.13;;
72319;SDS011;60269;52.502;16.732;2022-07-22T15:24:57;8.43;;;5.80;;
72319;SDS011;60269;52.502;16.732;2022-07-22T15:28:42;7.55;;;5.25;;
72319;SDS011;60269;52.502;16.732;2022-07-22T15:32:29;7.40;;;4.60;;
72319;SDS011;60269;52.502;16.732;2022-07-22T15:36:14;9.33;;;4.10;;
72319;SDS011;60269;52.502;16.732;2022-07-22T15:40:07;7.32;;;4.88;;
72319;SDS011;60269;52.502;16.732;2022-07-22T15:43:47;11.88;;;5.63;;
72319;SDS011;60269;52.502;16.732;2022-07-22T15:47:39;7.47;;;4.53;;
72319;SDS011;60269;52.502;16.732;2022-07-22T15:51:24;8.53;;;3.80;;
72319;SDS011;60269;52.502;16.732;2022-07-22T15:55:09;10.57;;;3.97;;
72319;SDS011;60269;52.502;16.732;2022-07-22T15:58:54;6.88;;;3.85;;
72319;SDS011;60269;52.502;16.732;2022-07-22T16:03:06;10.43;;;3.50;;
72319;SDS011;60269;52.502;16.732;2022-07-22T16:06:51;7.55;;;4.15;;
72319;SDS011;60269;52.502;16.732;2022-07-22T16:10:37;8.20;;;3.43;;
72319;SDS011;60269;52.502;16.732;2022-07-22T16:14:22;6.57;;;3.50;;
72319;SDS011;60269;52.502;16.732;2022-07-22T16:18:14;8.73;;;3.50;;
72319;SDS011;60269;52.502;16.732;2022-07-22T16:21:52;7.25;;;2.53;;
72319;SDS011;60269;52.502;16.732;2022-07-22T16:25:45;6.05;;;3.60;;
72319;SDS011;60269;52.502;16.732;2022-07-22T16:29:31;6.80;;;3.00;;
72319;SDS011;60269;52.502;16.732;2022-07-22T16:33:30;5.60;;;2.83;;
72319;SDS011;60269;52.502;16.732;2022-07-22T16:37:08;6.63;;;2.85;;
72319;SDS011;60269;52.502;16.732;2022-07-22T16:41:00;7.15;;;3.05;;
72319;SDS011;60269;52.502;16.732;2022-07-22T16:44:38;7.88;;;3.00;;
72319;SDS011;60269;52.502;16.732;2022-07-22T16:48:37;5.47;;;3.27;;
72319;SDS011;60269;52.502;16.732;2022-07-22T16:52:36;7.60;;;3.13;;
72319;SDS011;60269;52.502;16.732;2022-07-22T16:56:15;6.75;;;3.60;;
72319;SDS011;60269;52.502;16.732;2022-07-22T17:00:14;5.82;;;3.75;;
72319;SDS011;60269;52.502;16.732;2022-07-22T17:04:13;7.15;;;2.67;;
72319;SDS011;60269;52.502;16.732;2022-07-22T17:07:51;8.77;;;3.00;;
72319;SDS011;60269;52.502;16.732;2022-07-22T17:11:50;5.20;;;2.80;;
72319;SDS011;60269;52.502;16.732;2022-07-22T17:15:30;6.43;;;2.88;;
72319;SDS011;60269;52.502;16.732;2022-07-22T17:19:29;5.38;;;2.80;;
72319;SDS011;60269;52.502;16.732;2022-07-22T17:23:07;5.88;;;2.92;;
72319;SDS011;60269;52.502;16.732;2022-07-22T17:26:59;5.47;;;2.83;;
72319;SDS011;60269;52.502;16.732;2022-07-22T17:30:37;6.33;;;2.97;;
72319;SDS011;60269;52.502;16.732;2022-07-22T17:34:36;9.07;;;2.83;;
72319;SDS011;60269;52.502;16.732;2022-07-22T17:38:14;4.63;;;2.25;;
72319;SDS011;60269;52.502;16.732;2022-07-22T17:42:06;5.43;;;2.30;;
72319;SDS011;60269;52.502;16.732;2022-07-22T17:45:44;6.50;;;2.57;;
72319;SDS011;60269;52.502;16.732;2022-07-22T17:49:43;7.03;;;2.20;;
72319;SDS011;60269;52.502;16.732;2022-07-22T17:53:42;6.95;;;2.65;;
72319;SDS011;60269;52.502;16.732;2022-07-22T17:57:20;5.15;;;2.70;;
72319;SDS011;60269;52.502;16.732;2022-07-22T18:01:19;6.82;;;2.40;;
72319;SDS011;60269;52.502;16.732;2022-07-22T18:05:18;4.80;;;2.20;;
72319;SDS011;60269;52.502;16.732;2022-07-22T18:08:56;6.30;;;2.27;;
72319;SDS011;60269;52.502;16.732;2022-07-22T18:12:55;5.00;;;2.08;;
72319;SDS011;60269;52.502;16.732;2022-07-22T18:16:33;6.05;;;2.53;;
72319;SDS011;60269;52.502;16.732;2022-07-22T18:20:25;5.63;;;2.00;;
72319;SDS011;60269;52.502;16.732;2022-07-22T18:24:04;5.33;;;2.13;;
72319;SDS011;60269;52.502;16.732;2022-07-22T18:28:03;4.40;;;1.80;;
72319;SDS011;60269;52.502;16.732;2022-07-22T18:31:42;5.70;;;2.00;;
72319;SDS011;60269;52.502;16.732;2022-07-22T18:35:40;5.72;;;2.33;;
72319;SDS011;60269;52.502;16.732;2022-07-22T18:39:18;4.57;;;1.90;;
72319;SDS011;60269;52.502;16.732;2022-07-22T18:43:10;12.40;;;2.03;;
72319;SDS011;60269;52.502;16.732;2022-07-22T18:46:49;6.00;;;1.90;;
72319;SDS011;60269;52.502;16.732;2022-07-22T18:50:48;6.72;;;2.10;;
72319;SDS011;60269;52.502;16.732;2022-07-22T18:54:47;6.00;;;2.58;;
72319;SDS011;60269;52.502;16.732;2022-07-22T18:58:28;5.63;;;2.40;;
72319;SDS011;60269;52.502;16.732;2022-07-22T19:02:27;6.33;;;2.70;;
72319;SDS011;60269;52.502;16.732;2022-07-22T19:06:26;5.77;;;2.73;;
72319;SDS011;60269;52.502;16.732;2022-07-22T19:10:11;6.20;;;2.88;;
72319;SDS011;60269;52.502;16.732;2022-07-22T19:14:03;8.07;;;2.80;;
72319;SDS011;60269;52.502;16.732;2022-07-22T19:17:48;7.07;;;2.97;;
72319;SDS011;60269;52.502;16.732;2022-07-22T19:21:33;9.43;;;2.80;;
72319;SDS011;60269;52.502;16.732;2022-07-22T19:25:18;7.90;;;3.33;;
72319;SDS011;60269;52.502;16.732;2022-07-22T19:29:10;10.98;;;3.03;;
72319;SDS011;60269;52.502;16.732;2022-07-22T19:32:55;8.30;;;3.03;;
72319;SDS011;60269;52.502;16.732;2022-07-22T19:36:40;10.27;;;3.45;;
72319;SDS011;60269;52.502;16.732;2022-07-22T19:40:25;9.90;;;3.50;;
72319;SDS011;60269;52.502;16.732;2022-07-22T19:44:24;9.27;;;2.87;;
72319;SDS011;60269;52.502;16.732;2022-07-22T19:48:23;8.05;;;3.55;;
72319;SDS011;60269;52.502;16.732;2022-07-22T19:52:02;8.68;;;3.17;;
72319;SDS011;60269;52.502;16.732;2022-07-22T19:55:54;10.35;;;3.45;;
72319;SDS011;60269;52.502;16.732;2022-07-22T19:59:32;7.53;;;3.63;;
72319;SDS011;60269;52.502;16.732;2022-07-22T20:03:31;9.07;;;4.03;;
72319;SDS011;60269;52.502;16.732;2022-07-22T20:07:32;9.32;;;4.55;;
72319;SDS011;60269;52.502;16.732;2022-07-22T20:11:10;11.93;;;4.78;;
72319;SDS011;60269;52.502;16.732;2022-07-22T20:15:09;9.55;;;4.22;;
72319;SDS011;60269;52.502;16.732;2022-07-22T20:18:47;8.13;;;4.27;;
72319;SDS011;60269;52.502;16.732;2022-07-22T20:22:39;12.67;;;3.57;;
72319;SDS011;60269;52.502;16.732;2022-07-22T20:26:18;8.48;;;4.22;;
72319;SDS011;60269;52.502;16.732;2022-07-22T20:30:10;10.00;;;3.95;;
72319;SDS011;60269;52.502;16.732;2022-07-22T20:33:48;9.20;;;4.15;;
72319;SDS011;60269;52.502;16.732;2022-07-22T20:37:47;6.87;;;3.53;;
72319;SDS011;60269;52.502;16.732;2022-07-22T20:41:46;9.30;;;3.73;;
72319;SDS011;60269;52.502;16.732;2022-07-22T20:45:44;8.30;;;4.07;;
72319;SDS011;60269;52.502;16.732;2022-07-22T20:49:43;9.25;;;4.57;;
72319;SDS011;60269;52.502;16.732;2022-07-22T20:53:42;9.00;;;4.25;;
72319;SDS011;60269;52.502;16.732;2022-07-22T20:57:21;9.63;;;4.60;;
72319;SDS011;60269;52.502;16.732;2022-07-22T21:01:20;10.83;;;4.37;;
72319;SDS011;60269;52.502;16.732;2022-07-22T21:05:19;12.10;;;4.38;;
72319;SDS011;60269;52.502;16.732;2022-07-22T21:08:57;9.75;;;4.05;;
72319;SDS011;60269;52.502;16.732;2022-07-22T21:12:56;10.93;;;4.68;;
72319;SDS011;60269;52.502;16.732;2022-07-22T21:16:55;9.93;;;4.87;;
72319;SDS011;60269;52.502;16.732;2022-07-22T21:20:54;9.83;;;4.27;;
72319;SDS011;60269;52.502;16.732;2022-07-22T21:24:33;8.75;;;4.10;;
72319;SDS011;60269;52.502;16.732;2022-07-22T21:28:31;11.13;;;6.50;;
72319;SDS011;60269;52.502;16.732;2022-07-22T21:32:30;12.95;;;7.53;;
72319;SDS011;60269;52.502;16.732;2022-07-22T21:36:08;13.07;;;6.70;;
72319;SDS011;60269;52.502;16.732;2022-07-22T21:40:07;10.37;;;6.00;;
72319;SDS011;60269;52.502;16.732;2022-07-22T21:44:06;11.90;;;6.07;;
72319;SDS011;60269;52.502;16.732;2022-07-22T21:47:44;10.48;;;5.65;;
72319;SDS011;60269;52.502;16.732;2022-07-22T21:51:43;9.38;;;5.38;;
72319;SDS011;60269;52.502;16.732;2022-07-22T21:55:42;11.57;;;4.97;;
72319;SDS011;60269;52.502;16.732;2022-07-22T21:59:39;10.60;;;5.40;;
72319;SDS011;60269;52.502;16.732;2022-07-22T22:03:38;10.32;;;5.10;;
72319;SDS011;60269;52.502;16.732;2022-07-22T22:07:23;9.38;;;4.75;;
72319;SDS011;60269;52.502;16.732;2022-07-22T22:11:21;10.05;;;4.93;;
72319;SDS011;60269;52.502;16.732;2022-07-22T22:14:59;11.27;;;5.33;;
72319;SDS011;60269;52.502;16.732;2022-07-22T22:18:51;11.73;;;5.90;;
72319;SDS011;60269;52.502;16.732;2022-07-22T22:22:40;14.95;;;6.60;;
72319;SDS011;60269;52.502;16.732;2022-07-22T22:26:25;13.38;;;5.70;;
72319;SDS011;60269;52.502;16.732;2022-07-22T22:30:10;11.13;;;5.40;;
72319;SDS011;60269;52.502;16.732;2022-07-22T22:34:02;13.20;;;5.30;;